Time;durP1;ratioP1;P1;durP2;ratioP2;P2;SDS_P1;SDS_P2;PMS_P1;PMS_P2;Temp;Humidity;BMP_temperature;BMP_pressure;BME280_temperature;BME280_humidity;BME280_pressure;Samples;Min_cycle;Max_cycle;Signal;HPM_P1;HPM_P2
2023/04/24 00:00:28;;;;;;;3.25;3.05;;;;;;;8.63;100.00;95292.53;5077581;28;20113;-71
2023/04/24 00:02:56;;;;;;;4.93;2.97;;;;;;;8.52;100.00;95292.66;5081087;28;20141;-71
2023/04/24 00:05:23;;;;;;;3.28;2.90;;;;;;;8.54;100.00;95294.19;5065662;28;20025;-72
2023/04/24 00:07:48;;;;;;;3.67;3.38;;;;;;;8.52;100.00;95298.75;5068337;28;20032;-73
2023/04/24 00:10:14;;;;;;;3.35;3.13;;;;;;;8.52;100.00;95298.75;5070354;28;20160;-73
2023/04/24 00:12:39;;;;;;;3.78;3.50;;;;;;;8.49;100.00;95300.78;5067237;28;20050;-72
2023/04/24 00:15:05;;;;;;;3.50;3.20;;;;;;;8.65;100.00;95294.97;5063926;28;20032;-72
2023/04/24 00:17:31;;;;;;;3.58;3.10;;;;;;;8.55;100.00;95308.94;5071956;28;21209;-73
2023/04/24 00:19:59;;;;;;;10.82;3.10;;;;;;;8.53;100.00;95304.81;5066979;28;20094;-72
2023/04/24 00:22:25;;;;;;;4.50;3.30;;;;;;;8.53;100.00;95299.56;5062674;28;20514;-73
2023/04/24 00:24:51;;;;;;;3.60;3.30;;;;;;;8.59;100.00;95304.25;5077043;28;20028;-72
2023/04/24 00:27:16;;;;;;;3.35;3.15;;;;;;;8.60;100.00;95304.13;5073748;28;20046;-73
2023/04/24 00:29:41;;;;;;;3.55;3.35;;;;;;;8.53;100.00;95305.66;5069462;28;20013;-73
2023/04/24 00:32:07;;;;;;;3.88;3.47;;;;;;;8.49;100.00;95303.41;5071354;28;20510;-72
2023/04/24 00:34:32;;;;;;;4.68;3.40;;;;;;;8.46;100.00;95301.88;5070728;28;20036;-72
2023/04/24 00:36:58;;;;;;;3.83;3.53;;;;;;;8.43;100.00;95283.78;5071425;28;20107;-72
2023/04/24 00:39:23;;;;;;;4.90;4.50;;;;;;;8.41;100.00;95281.31;5068680;28;20158;-73
2023/04/24 00:41:50;;;;;;;3.70;3.05;;;;;;;8.44;100.00;95281.03;5064036;28;20083;-73
2023/04/24 00:44:16;;;;;;;3.08;2.88;;;;;;;8.46;100.00;95286.13;5068959;28;20052;-73
2023/04/24 00:46:42;;;;;;;2.40;2.30;;;;;;;8.44;100.00;95286.28;5075575;28;20024;-73
2023/04/24 00:49:07;;;;;;;2.40;2.30;;;;;;;8.50;100.00;95289.34;5066645;28;20013;-73
2023/04/24 00:51:34;;;;;;;4.25;2.50;;;;;;;8.43;100.00;95289.88;5074203;28;20037;-72
2023/04/24 00:54:00;;;;;;;3.15;2.83;;;;;;;8.34;100.00;95292.50;5081570;28;20027;-73
2023/04/24 00:56:26;;;;;;;4.38;2.60;;;;;;;8.47;100.00;95295.66;5072132;28;20030;-72
2023/04/24 00:58:51;;;;;;;3.70;2.83;;;;;;;8.39;100.00;95298.97;5081761;28;20031;-72
2023/04/24 01:01:20;;;;;;;3.30;3.05;;;;;;;8.36;100.00;95294.00;5077717;28;20070;-72
2023/04/24 01:03:46;;;;;;;5.13;3.08;;;;;;;8.30;100.00;95292.78;5080452;28;20082;-72
2023/04/24 01:06:12;;;;;;;3.45;2.95;;;;;;;8.29;100.00;95288.50;5087777;28;20036;-72
2023/04/24 01:08:39;;;;;;;3.42;3.22;;;;;;;8.45;100.00;95280.06;5083606;28;20025;-72
2023/04/24 01:11:05;;;;;;;3.72;2.80;;;;;;;8.46;100.00;95283.50;5067429;28;20043;-72
2023/04/24 01:13:32;;;;;;;6.82;3.17;;;;;;;8.35;100.00;95286.28;5073035;28;20021;-72
2023/04/24 01:15:57;;;;;;;2.97;2.70;;;;;;;8.27;100.00;95285.16;5070095;28;20028;-72
2023/04/24 01:18:22;;;;;;;4.93;3.47;;;;;;;8.26;100.00;95288.75;5077125;28;20036;-72
2023/04/24 01:20:52;;;;;;;5.70;5.20;;;;;;;8.27;100.00;95289.59;5065305;28;20385;-72
2023/04/24 01:23:18;;;;;;;3.90;3.60;;;;;;;8.29;100.00;95283.25;5082024;28;20047;-72
2023/04/24 01:25:44;;;;;;;3.40;3.20;;;;;;;8.26;100.00;95285.31;5073116;28;20059;-72
2023/04/24 01:28:10;;;;;;;3.45;3.15;;;;;;;8.28;100.00;95292.06;5073148;28;20020;-72
2023/04/24 01:30:35;;;;;;;3.40;3.15;;;;;;;8.25;100.00;95284.47;5076489;28;20124;-72
2023/04/24 01:33:01;;;;;;;4.53;3.33;;;;;;;8.26;100.00;95288.75;5067726;28;20020;-72
2023/04/24 01:35:27;;;;;;;3.65;3.45;;;;;;;8.32;100.00;95297.88;5064281;28;20021;-72
2023/04/24 01:37:52;;;;;;;4.35;3.30;;;;;;;8.39;100.00;95301.59;5074382;28;20044;-72
2023/04/24 01:40:17;;;;;;;3.75;3.45;;;;;;;8.39;100.00;95309.44;5071569;28;20033;-72
2023/04/24 01:42:43;;;;;;;3.83;3.50;;;;;;;8.40;100.00;95311.13;5078443;28;20032;-72
2023/04/24 01:45:11;;;;;;;3.85;3.55;;;;;;;8.38;100.00;95307.78;5071303;28;20481;-72
2023/04/24 01:47:37;;;;;;;3.67;3.47;;;;;;;8.35;100.00;95308.06;5082846;28;20021;-72
2023/04/24 01:50:04;;;;;;;3.50;3.20;;;;;;;8.40;100.00;95311.13;5076464;28;20020;-72
2023/04/24 01:52:31;;;;;;;4.75;2.70;;;;;;;8.54;100.00;95309.91;5071328;28;20524;-71
2023/04/24 01:54:59;;;;;;;2.60;2.40;;;;;;;8.50;100.00;95308.53;5077525;28;20020;-71
2023/04/24 01:57:24;;;;;;;5.07;2.53;;;;;;;8.45;100.00;95313.31;5084090;28;20027;-72
2023/04/24 01:59:51;;;;;;;5.68;2.50;;;;;;;8.45;100.00;95313.31;5072366;28;20025;-72
2023/04/24 02:02:16;;;;;;;8.25;2.33;;;;;;;8.46;100.00;95309.75;5067270;28;20131;-71
2023/04/24 02:04:42;;;;;;;2.60;2.40;;;;;;;8.43;100.00;95310.84;5067512;28;20040;-72
2023/04/24 02:07:07;;;;;;;2.28;2.17;;;;;;;8.45;100.00;95308.06;5069594;28;20031;-72
2023/04/24 02:09:33;;;;;;;2.90;2.60;;;;;;;8.34;100.00;95303.78;5068614;28;20048;-72
2023/04/24 02:11:58;;;;;;;4.20;2.65;;;;;;;8.26;100.00;95304.47;5070282;28;20021;-72
2023/04/24 02:14:24;;;;;;;2.72;2.53;;;;;;;8.24;100.00;95305.59;5070697;28;20024;-72
2023/04/24 02:16:49;;;;;;;2.80;2.60;;;;;;;8.24;100.00;95308.22;5074331;28;20023;-71
2023/04/24 02:19:15;;;;;;;2.97;2.78;;;;;;;8.28;100.00;95301.72;5083220;28;20400;-71
2023/04/24 02:21:40;;;;;;;2.80;2.60;;;;;;;8.33;100.00;95304.75;5081626;28;20019;-72
2023/04/24 02:24:05;;;;;;;3.03;2.75;;;;;;;8.32;100.00;95309.19;5087479;28;20024;-72
2023/04/24 02:26:31;;;;;;;5.13;3.00;;;;;;;8.25;100.00;95308.06;5078309;28;20029;-72
2023/04/24 02:28:57;;;;;;;2.80;2.50;;;;;;;8.24;100.00;95309.03;5070328;28;20553;-72
2023/04/24 02:31:22;;;;;;;3.08;2.72;;;;;;;8.21;100.00;95304.06;5070506;28;20469;-71
2023/04/24 02:33:48;;;;;;;2.90;2.60;;;;;;;8.20;100.00;95299.78;5070197;28;20025;-72
2023/04/24 02:36:13;;;;;;;2.72;2.50;;;;;;;8.19;100.00;95311.25;5067340;28;20049;-71
2023/04/24 02:38:39;;;;;;;3.63;2.50;;;;;;;8.18;100.00;95317.47;5075635;28;20048;-71
2023/04/24 02:41:06;;;;;;;3.42;2.42;;;;;;;8.21;100.00;95316.38;5065931;28;20483;-72
2023/04/24 02:43:34;;;;;;;3.90;2.67;;;;;;;8.21;100.00;95306.69;5079138;28;20017;-72
2023/04/24 02:45:59;;;;;;;3.30;2.80;;;;;;;8.25;100.00;95294.97;5068958;28;20024;-72
2023/04/24 02:48:25;;;;;;;2.70;2.50;;;;;;;8.28;100.00;95301.72;5080096;28;20028;-72
2023/04/24 02:50:50;;;;;;;2.50;2.30;;;;;;;8.28;100.00;95313.03;5076020;28;20440;-72
2023/04/24 02:53:16;;;;;;;8.43;7.63;;;;;;;8.26;100.00;95309.72;5070483;28;20009;-72
2023/04/24 02:55:41;;;;;;;4.60;3.05;;;;;;;8.22;100.00;95305.72;5075383;28;20021;-72
2023/04/24 02:58:07;;;;;;;3.30;3.00;;;;;;;8.23;100.00;95309.19;5078173;28;20020;-72
2023/04/24 03:00:32;;;;;;;5.40;2.55;;;;;;;8.25;100.00;95312.50;5078833;28;20020;-72
2023/04/24 03:02:58;;;;;;;2.50;2.30;;;;;;;8.49;100.00;95314.69;5070582;28;20380;-72
2023/04/24 03:05:23;;;;;;;5.88;2.42;;;;;;;8.56;100.00;95313.22;5067157;28;20129;-72
2023/04/24 03:07:49;;;;;;;3.63;2.63;;;;;;;8.52;100.00;95314.47;5066105;28;20043;-72
2023/04/24 03:10:15;;;;;;;2.63;2.50;;;;;;;8.42;100.00;95326.72;5076778;28;20023;-72
2023/04/24 03:12:40;;;;;;;3.30;3.00;;;;;;;8.30;100.00;95305.88;5080235;28;20021;-71
2023/04/24 03:15:06;;;;;;;3.47;2.97;;;;;;;8.22;100.00;95316.22;5072291;28;20025;-72
2023/04/24 03:17:31;;;;;;;3.15;2.92;;;;;;;8.18;100.00;95320.09;5077305;28;20020;-71
2023/04/24 03:19:57;;;;;;;3.17;2.97;;;;;;;8.15;100.00;95325.59;5065045;28;20566;-71
2023/04/24 03:22:22;;;;;;;3.20;3.00;;;;;;;8.11;100.00;95324.22;5066742;28;20020;-72
2023/04/24 03:24:48;;;;;;;3.10;2.70;;;;;;;8.10;100.00;95325.19;5090472;28;20507;-71
2023/04/24 03:27:13;;;;;;;2.97;2.80;;;;;;;8.09;100.00;95332.22;5069959;28;20060;-72
2023/04/24 03:29:38;;;;;;;3.60;3.30;;;;;;;8.14;100.00;95339.69;5065998;28;20019;-72
2023/04/24 03:32:04;;;;;;;3.72;3.00;;;;;;;8.16;100.00;95329.88;5070421;28;20067;-71
2023/04/24 03:34:29;;;;;;;4.05;3.72;;;;;;;8.07;100.00;95334.13;5071991;28;20028;-71
2023/04/24 03:36:55;;;;;;;3.38;2.75;;;;;;;8.06;100.00;95324.63;5066687;28;20533;-71
2023/04/24 03:39:20;;;;;;;3.08;2.15;;;;;;;8.03;100.00;95327.50;5071130;28;20025;-71
2023/04/24 03:41:46;;;;;;;3.25;2.13;;;;;;;8.03;100.00;95328.31;5075407;28;20073;-71
2023/04/24 03:44:11;;;;;;;2.75;1.80;;;;;;;8.06;100.00;95329.00;5070213;28;20036;-71
2023/04/24 03:46:36;;;;;;;2.33;2.13;;;;;;;8.08;100.00;95334.97;5064360;28;20104;-71
2023/04/24 03:49:02;;;;;;;2.05;1.95;;;;;;;8.07;100.00;95330.66;5070876;28;20025;-71
2023/04/24 03:51:27;;;;;;;3.03;1.95;;;;;;;8.05;100.00;95333.44;5065373;28;20086;-71
2023/04/24 03:53:53;;;;;;;3.10;2.13;;;;;;;8.00;100.00;95330.41;5075128;28;20024;-71
2023/04/24 03:56:19;;;;;;;5.03;2.38;;;;;;;7.99;100.00;95324.31;5068100;28;20075;-71
2023/04/24 03:58:45;;;;;;;2.25;1.80;;;;;;;7.99;100.00;95323.50;5088522;28;20153;-71
2023/04/24 04:01:11;;;;;;;5.85;2.45;;;;;;;8.00;100.00;95320.72;5068327;28;20033;-70
2023/04/24 04:03:37;;;;;;;2.15;2.00;;;;;;;8.05;100.00;95316.88;5064174;28;20032;-71
2023/04/24 04:06:02;;;;;;;2.42;2.30;;;;;;;7.99;100.00;95324.31;5070503;28;20086;-71
2023/04/24 04:08:27;;;;;;;1.80;1.70;;;;;;;7.92;100.00;95323.22;5069075;28;20101;-72
2023/04/24 04:10:53;;;;;;;3.05;1.80;;;;;;;7.88;100.00;95319.22;5075005;28;20023;-72
2023/04/24 04:13:18;;;;;;;2.55;2.35;;;;;;;7.84;100.00;95317.78;5071012;28;20378;-71
2023/04/24 04:15:44;;;;;;;2.72;1.75;;;;;;;7.82;100.00;95309.25;5073755;28;20070;-71
2023/04/24 04:18:09;;;;;;;3.85;2.00;;;;;;;7.80;100.00;95313.78;5070219;28;20024;-72
2023/04/24 04:20:35;;;;;;;3.83;1.90;;;;;;;7.78;100.00;95313.94;5067883;28;20104;-71
2023/04/24 04:23:00;;;;;;;2.42;1.83;;;;;;;7.73;100.00;95313.50;5084654;28;20071;-71
2023/04/24 04:25:26;;;;;;;2.00;1.90;;;;;;;7.65;100.00;95316.81;5080482;28;20017;-71
2023/04/24 04:27:52;;;;;;;2.20;2.00;;;;;;;7.68;100.00;95313.06;5083070;28;20028;-71
2023/04/24 04:30:18;;;;;;;1.90;1.80;;;;;;;7.63;100.00;95312.66;5073684;28;20031;-70
2023/04/24 04:32:43;;;;;;;3.45;1.88;;;;;;;7.97;100.00;95314.94;5058295;28;20029;-71
2023/04/24 04:35:09;;;;;;;3.95;3.58;;;;;;;7.72;100.00;95323.16;5070781;28;20058;-70
2023/04/24 04:37:35;;;;;;;3.42;2.53;;;;;;;7.58;100.00;95315.66;5062676;28;20611;-70
2023/04/24 04:40:01;;;;;;;3.63;2.00;;;;;;;7.51;100.00;95310.13;5072597;28;20034;-71
2023/04/24 04:42:28;;;;;;;1.83;1.73;;;;;;;7.55;100.00;95306.28;5074311;28;20021;-71
2023/04/24 04:44:53;;;;;;;4.85;1.67;;;;;;;7.49;100.00;95308.59;5070619;28;20028;-71
2023/04/24 04:47:23;;;;;;;3.20;2.20;;;;;;;7.60;100.00;95321.59;5083663;28;20055;-71
2023/04/24 04:49:48;;;;;;;2.33;2.20;;;;;;;7.93;100.00;95319.63;5064529;28;20054;-71
2023/04/24 04:52:13;;;;;;;2.50;2.03;;;;;;;8.06;100.00;95322.00;5071210;28;20052;-71
2023/04/24 04:54:39;;;;;;;5.28;2.30;;;;;;;7.96;100.00;95323.78;5070946;28;21222;-70
2023/04/24 04:57:05;;;;;;;5.18;2.05;;;;;;;7.74;100.00;95325.66;5070663;28;20553;-71
2023/04/24 04:59:30;;;;;;;2.22;2.03;;;;;;;7.64;100.00;95336.09;5064039;28;20059;-71
2023/04/24 05:01:56;;;;;;;2.45;2.25;;;;;;;7.85;100.00;95337.81;5068726;28;20018;-70
2023/04/24 05:04:21;;;;;;;3.83;2.13;;;;;;;7.64;100.00;95338.72;5074851;28;20028;-70
2023/04/24 05:06:47;;;;;;;2.38;1.95;;;;;;;7.77;100.00;95345.50;5067961;28;20107;-72
2023/04/24 05:09:12;;;;;;;2.75;1.92;;;;;;;7.62;100.00;95342.44;5078066;28;20017;-72
2023/04/24 05:11:38;;;;;;;3.63;1.85;;;;;;;7.59;100.00;95344.34;5075409;28;20155;-72
2023/04/24 05:14:03;;;;;;;2.10;1.80;;;;;;;7.63;100.00;95344.09;5075834;28;20115;-71
2023/04/24 05:16:28;;;;;;;4.00;1.80;;;;;;;7.67;100.00;95359.41;5076205;28;20432;-71
2023/04/24 05:18:54;;;;;;;1.65;1.58;;;;;;;7.71;100.00;95365.19;5075844;28;20472;-72
2023/04/24 05:21:20;;;;;;;5.93;2.63;;;;;;;7.70;100.00;95372.25;5061852;28;20044;-72
2023/04/24 05:23:45;;;;;;;3.70;3.40;;;;;;;7.70;100.00;95369.63;5083586;28;20071;-70
2023/04/24 05:26:10;;;;;;;5.88;4.35;;;;;;;7.75;100.00;95379.72;5076768;28;20408;-70
2023/04/24 05:28:36;;;;;;;6.10;4.00;;;;;;;7.76;100.00;95385.78;5072523;28;20028;-70
2023/04/24 05:31:02;;;;;;;5.22;4.13;;;;;;;7.78;100.00;95391.72;5074540;28;20033;-72
2023/04/24 05:33:27;;;;;;;4.50;3.20;;;;;;;7.83;100.00;95393.00;5064907;28;20030;-71
2023/04/24 05:35:53;;;;;;;2.15;2.05;;;;;;;8.00;100.00;95398.56;5074432;28;20024;-71
2023/04/24 05:38:19;;;;;;;3.13;2.25;;;;;;;7.97;100.00;95407.53;5068267;28;20041;-72
2023/04/24 05:40:45;;;;;;;4.10;2.40;;;;;;;7.91;100.00;95402.81;5068978;28;20955;-71
2023/04/24 05:43:11;;;;;;;4.22;3.80;;;;;;;7.90;100.00;95414.25;5082179;28;20070;-72
2023/04/24 05:45:36;;;;;;;4.72;3.20;;;;;;;7.92;100.00;95419.34;5066622;28;20029;-70
2023/04/24 05:48:03;;;;;;;5.82;3.33;;;;;;;7.94;100.00;95413.03;5079302;28;20493;-70
2023/04/24 05:50:28;;;;;;;6.55;3.80;;;;;;;7.92;100.00;95414.97;5074247;28;20070;-73
2023/04/24 05:52:54;;;;;;;4.57;3.53;;;;;;;7.86;100.00;95418.13;5072435;28;20017;-72
2023/04/24 05:55:19;;;;;;;3.97;3.15;;;;;;;7.87;100.00;95420.59;5081277;28;20028;-71
2023/04/24 05:57:45;;;;;;;5.72;3.35;;;;;;;7.91;100.00;95420.31;5072228;28;20099;-75
2023/04/24 06:00:12;;;;;;;5.43;3.30;;;;;;;7.98;100.00;95424.91;5075115;28;20028;-72
2023/04/24 06:02:38;;;;;;;3.30;3.00;;;;;;;8.09;100.00;95423.16;5074356;28;20107;-73
2023/04/24 06:05:04;;;;;;;4.28;3.83;;;;;;;8.20;100.00;95427.47;5075613;28;20028;-73
2023/04/24 06:07:32;;;;;;;2.58;2.40;;;;;;;8.27;100.00;95431.22;5076761;28;20016;-72
2023/04/24 06:09:58;;;;;;;2.30;2.20;;;;;;;8.19;100.00;95429.25;5070955;28;20019;-73
2023/04/24 06:12:23;;;;;;;2.22;2.13;;;;;;;8.11;100.00;95429.91;5073722;28;20371;-72
2023/04/24 06:14:49;;;;;;;2.63;2.20;;;;;;;8.09;100.00;95439.72;5073700;28;20497;-72
2023/04/24 06:17:17;;;;;;;2.63;2.45;;;;;;;8.15;100.00;95438.34;5080916;28;20526;-72
2023/04/24 06:19:43;;;;;;;2.95;2.83;;;;;;;8.19;100.00;95437.13;5069860;28;20405;-72
2023/04/24 06:22:08;;;;;;;2.75;2.45;;;;;;;8.21;100.00;95437.00;5069002;28;20046;-70
2023/04/24 06:24:34;;;;;;;3.47;2.08;;;;;;;8.22;100.00;95438.66;5072128;28;20029;-71
2023/04/24 06:27:01;;;;;;;2.10;1.90;;;;;;;8.22;100.00;95447.34;5075677;28;20028;-71
2023/04/24 06:29:27;;;;;;;5.75;2.50;;;;;;;8.21;100.00;95448.31;5068732;28;20055;-71
2023/04/24 06:31:52;;;;;;;3.00;2.80;;;;;;;8.21;100.00;95443.06;5067034;28;20020;-71
2023/04/24 06:34:17;;;;;;;3.40;2.70;;;;;;;8.24;100.00;95455.09;5079649;28;20027;-71
2023/04/24 06:36:43;;;;;;;3.25;2.78;;;;;;;8.19;100.00;95459.91;5070629;28;20183;-72
2023/04/24 06:39:09;;;;;;;7.00;3.67;;;;;;;8.22;100.00;95457.84;5079481;28;20031;-71
2023/04/24 06:41:34;;;;;;;4.82;2.83;;;;;;;8.27;100.00;95463.50;5065189;28;20020;-72
2023/04/24 06:44:00;;;;;;;2.30;2.05;;;;;;;8.27;100.00;95467.94;5074239;28;20128;-72
2023/04/24 06:46:27;;;;;;;2.22;2.05;;;;;;;8.20;100.00;95469.44;5063730;28;20111;-72
2023/04/24 06:48:55;;;;;;;3.45;2.20;;;;;;;8.16;100.00;95469.69;5068648;28;20435;-72
2023/04/24 06:51:25;;;;;;;2.55;2.28;;;;;;;8.27;100.00;95474.00;5069921;28;20024;-72
2023/04/24 06:53:55;;;;;;;3.78;3.20;;;;;;;8.35;100.00;95469.91;5069179;28;20082;-72
2023/04/24 06:56:22;;;;;;;3.22;2.92;;;;;;;8.42;100.00;95471.84;5074902;28;20067;-72
2023/04/24 06:58:47;;;;;;;8.52;3.03;;;;;;;8.48;100.00;95480.16;5072048;28;20564;-73
2023/04/24 07:01:13;;;;;;;3.10;2.90;;;;;;;8.45;100.00;95484.69;5061536;28;20021;-72
2023/04/24 07:03:38;;;;;;;2.70;2.30;;;;;;;8.48;100.00;95488.00;5069619;28;20024;-73
2023/04/24 07:06:04;;;;;;;2.88;2.67;;;;;;;8.48;100.00;95491.44;5074090;28;20042;-73
2023/04/24 07:08:33;;;;;;;2.33;2.13;;;;;;;8.46;100.00;95488.97;5069041;28;20031;-73
2023/04/24 07:10:59;;;;;;;3.42;2.13;;;;;;;8.48;100.00;95495.88;5070741;28;20025;-73
2023/04/24 07:13:24;;;;;;;2.08;1.98;;;;;;;8.58;100.00;95502.00;5070312;28;20016;-74
2023/04/24 07:15:53;;;;;;;4.05;3.35;;;;;;;8.65;100.00;95503.16;5075233;28;20081;-73
2023/04/24 07:18:20;;;;;;;7.32;3.33;;;;;;;9.00;100.00;95511.50;5085004;28;20024;-73
2023/04/24 07:20:46;;;;;;;3.45;3.15;;;;;;;8.78;100.00;95515.19;5067801;28;20028;-74
2023/04/24 07:23:11;;;;;;;3.08;2.42;;;;;;;8.71;100.00;95517.50;5071497;28;20028;-73
2023/04/24 07:25:38;;;;;;;3.70;1.90;;;;;;;8.70;100.00;95521.09;5065597;28;20023;-74
2023/04/24 07:28:04;;;;;;;4.15;1.95;;;;;;;8.52;100.00;95518.28;5079793;28;20032;-74
2023/04/24 07:30:30;;;;;;;2.80;2.05;;;;;;;8.82;100.00;95516.56;5064618;28;20020;-73
2023/04/24 07:32:55;;;;;;;3.13;1.80;;;;;;;8.99;100.00;95523.78;5070637;28;20474;-74
2023/04/24 07:35:21;;;;;;;2.10;2.00;;;;;;;8.68;100.00;95529.13;5067703;28;20179;-73
2023/04/24 07:37:46;;;;;;;4.00;3.03;;;;;;;8.54;100.00;95532.09;5071101;28;20087;-74
2023/04/24 07:40:13;;;;;;;5.10;3.55;;;;;;;8.33;100.00;95535.59;5071970;28;20029;-74
2023/04/24 07:42:38;;;;;;;4.90;3.10;;;;;;;8.33;100.00;95538.22;5072267;28;20056;-74
2023/04/24 07:45:04;;;;;;;3.50;2.80;;;;;;;8.53;100.00;95541.78;5068017;28;20021;-74
2023/04/24 07:47:30;;;;;;;6.95;3.00;;;;;;;8.38;100.00;95545.69;5081868;28;20046;-74
2023/04/24 07:49:56;;;;;;;4.07;3.63;;;;;;;8.37;100.00;95546.66;5072673;28;20027;-74
2023/04/24 07:52:21;;;;;;;4.57;3.90;;;;;;;8.36;100.00;95545.81;5072469;28;20024;-74
2023/04/24 07:54:46;;;;;;;6.75;5.45;;;;;;;8.41;100.00;95554.16;5067722;28;20110;-73
2023/04/24 07:57:12;;;;;;;13.13;8.77;;;;;;;8.46;100.00;95556.34;5069037;28;20038;-74
2023/04/24 07:59:37;;;;;;;8.32;5.05;;;;;;;8.46;100.00;95558.97;5068529;28;20032;-74
2023/04/24 08:02:03;;;;;;;5.45;3.00;;;;;;;8.46;100.00;95559.81;5073881;28;20032;-74
2023/04/24 08:04:28;;;;;;;9.25;5.53;;;;;;;8.45;100.00;95575.69;5068791;28;20561;-74
2023/04/24 08:06:53;;;;;;;8.35;6.07;;;;;;;8.44;100.00;95576.66;5077703;28;20036;-74
2023/04/24 08:09:19;;;;;;;8.88;7.07;;;;;;;8.49;100.00;95576.25;5077586;28;20461;-74
2023/04/24 08:11:44;;;;;;;8.88;7.05;;;;;;;8.60;100.00;95578.81;5073409;28;20056;-74
2023/04/24 08:14:12;;;;;;;5.32;4.65;;;;;;;8.52;100.00;95573.41;5073156;28;20051;-75
2023/04/24 08:16:37;;;;;;;8.10;3.47;;;;;;;8.63;100.00;95585.59;5070635;28;20056;-75
2023/04/24 08:19:03;;;;;;;4.43;3.30;;;;;;;8.72;100.00;95588.25;5063338;28;20045;-76
2023/04/24 08:21:28;;;;;;;3.60;2.35;;;;;;;8.79;100.00;95583.31;5065438;28;20103;-75
2023/04/24 08:23:54;;;;;;;3.58;2.70;;;;;;;9.06;100.00;95584.47;5059458;28;20587;-74
2023/04/24 08:26:19;;;;;;;2.80;2.60;;;;;;;9.23;100.00;95587.41;5067913;28;20029;-73
2023/04/24 08:28:45;;;;;;;2.00;1.80;;;;;;;9.54;100.00;95589.91;5066110;28;20060;-73
2023/04/24 08:31:10;;;;;;;2.25;1.98;;;;;;;9.73;100.00;95591.72;5067237;28;20028;-74
2023/04/24 08:33:36;;;;;;;4.40;2.22;;;;;;;9.87;100.00;95583.41;5063031;28;20035;-72
2023/04/24 08:36:05;;;;;;;2.45;2.25;;;;;;;9.97;100.00;95593.91;5063382;28;20053;-74
2023/04/24 08:38:31;;;;;;;2.42;2.22;;;;;;;10.15;100.00;95595.81;5061483;28;20036;-73
2023/04/24 08:40:59;;;;;;;3.08;2.38;;;;;;;10.11;100.00;95597.09;5062595;28;20028;-72
2023/04/24 08:43:26;;;;;;;3.15;2.70;;;;;;;10.12;100.00;95596.94;5058623;28;20032;-73
2023/04/24 08:45:52;;;;;;;2.28;2.08;;;;;;;10.18;100.00;95591.13;5069230;28;20036;-73
2023/04/24 08:48:18;;;;;;;4.22;2.15;;;;;;;10.23;100.00;95597.75;5067992;28;20021;-73
2023/04/24 08:50:44;;;;;;;2.13;2.03;;;;;;;10.21;100.00;95600.50;5069872;28;20428;-74
2023/04/24 08:53:10;;;;;;;2.08;1.80;;;;;;;10.23;100.00;95603.81;5064660;28;20119;-73
2023/04/24 08:55:37;;;;;;;2.17;1.98;;;;;;;10.08;100.00;95607.91;5064150;28;20037;-74
2023/04/24 08:58:03;;;;;;;1.80;1.70;;;;;;;10.00;100.00;95604.16;5070397;28;20877;-74
2023/04/24 09:00:29;;;;;;;2.08;1.98;;;;;;;9.97;100.00;95601.78;5064698;28;20032;-74
2023/04/24 09:02:55;;;;;;;4.05;2.20;;;;;;;9.97;100.00;95599.16;5072032;28;20032;-74
2023/04/24 09:05:23;;;;;;;2.15;2.00;;;;;;;10.01;100.00;95607.63;5070813;28;20037;-76
